sensor_id;sensor_type;location;lat;lon;timestamp;temperature;humidity
15296;DHT22;7749;49.964;7.890;2023-04-06T00:01:28;3.90;99.90
15296;DHT22;7749;49.964;7.890;2023-04-06T00:04:41;3.90;1.00
15296;DHT22;7749;49.964;7.890;2023-04-06T00:07:27;3.80;1.00
15296;DHT22;7749;49.964;7.890;2023-04-06T00:10:26;3.80;1.00
15296;DHT22;7749;49.964;7.890;2023-04-06T00:13:51;3.80;1.00
15296;DHT22;7749;49.964;7.890;2023-04-06T00:16:24;3.70;1.00
15296;DHT22;7749;49.964;7.890;2023-04-06T00:19:29;3.80;1.00
15296;DHT22;7749;49.964;7.890;2023-04-06T00:22:22;3.70;1.00
15296;DHT22;7749;49.964;7.890;2023-04-06T00:25:23;3.70;1.00
15296;DHT22;7749;49.964;7.890;2023-04-06T00:28:05;3.80;1.00
15296;DHT22;7749;49.964;7.890;2023-04-06T00:31:24;3.70;1.00
15296;DHT22;7749;49.964;7.890;2023-04-06T00:34:26;3.60;1.00
15296;DHT22;7749;49.964;7.890;2023-04-06T00:37:18;3.60;99.90
15296;DHT22;7749;49.964;7.890;2023-04-06T00:40:06;3.50;1.00
15296;DHT22;7749;49.964;7.890;2023-04-06T00:42:41;3.50;1.00
15296;DHT22;7749;49.964;7.890;2023-04-06T00:45:33;3.50;99.90
15296;DHT22;7749;49.964;7.890;2023-04-06T00:48:31;3.50;99.90
15296;DHT22;7749;49.964;7.890;2023-04-06T00:51:17;3.50;99.90
15296;DHT22;7749;49.964;7.890;2023-04-06T00:54:19;3.30;1.00
15296;DHT22;7749;49.964;7.890;2023-04-06T00:57:45;3.40;1.00
15296;DHT22;7749;49.964;7.890;2023-04-06T01:01:00;3.30;1.00
15296;DHT22;7749;49.964;7.890;2023-04-06T01:03:58;3.30;1.00
15296;DHT22;7749;49.964;7.890;2023-04-06T01:06:44;3.40;99.90
15296;DHT22;7749;49.964;7.890;2023-04-06T01:09:27;3.40;1.00
15296;DHT22;7749;49.964;7.890;2023-04-06T01:16:14;3.30;99.90
15296;DHT22;7749;49.964;7.890;2023-04-06T01:19:14;3.20;99.90
15296;DHT22;7749;49.964;7.890;2023-04-06T01:22:27;3.10;99.90
15296;DHT22;7749;49.964;7.890;2023-04-06T01:25:13;3.00;1.00
15296;DHT22;7749;49.964;7.890;2023-04-06T01:28:03;3.00;1.00
15296;DHT22;7749;49.964;7.890;2023-04-06T01:30:40;2.90;1.00
15296;DHT22;7749;49.964;7.890;2023-04-06T01:33:36;3.00;1.00
15296;DHT22;7749;49.964;7.890;2023-04-06T01:36:28;2.80;99.90
15296;DHT22;7749;49.964;7.890;2023-04-06T01:39:17;2.80;99.90
15296;DHT22;7749;49.964;7.890;2023-04-06T01:42:20;2.70;1.00
15296;DHT22;7749;49.964;7.890;2023-04-06T01:45:08;2.70;1.00
15296;DHT22;7749;49.964;7.890;2023-04-06T01:48:03;2.80;1.00
15296;DHT22;7749;49.964;7.890;2023-04-06T01:50:45;2.70;17.50
15296;DHT22;7749;49.964;7.890;2023-04-06T01:53:27;2.70;1.00
15296;DHT22;7749;49.964;7.890;2023-04-06T01:56:33;2.70;1.00
15296;DHT22;7749;49.964;7.890;2023-04-06T01:59:40;2.80;1.00
15296;DHT22;7749;49.964;7.890;2023-04-06T02:02:48;2.70;1.00
15296;DHT22;7749;49.964;7.890;2023-04-06T02:05:32;2.70;1.00
15296;DHT22;7749;49.964;7.890;2023-04-06T02:08:14;2.70;99.90
15296;DHT22;7749;49.964;7.890;2023-04-06T02:11:39;2.60;1.00
15296;DHT22;7749;49.964;7.890;2023-04-06T02:14:30;2.60;1.00
15296;DHT22;7749;49.964;7.890;2023-04-06T02:17:13;2.60;1.00
15296;DHT22;7749;49.964;7.890;2023-04-06T02:20:11;2.50;1.00
15296;DHT22;7749;49.964;7.890;2023-04-06T02:23:10;2.50;99.90
15296;DHT22;7749;49.964;7.890;2023-04-06T02:26:30;2.50;1.00
15296;DHT22;7749;49.964;7.890;2023-04-06T02:29:18;2.40;1.00
15296;DHT22;7749;49.964;7.890;2023-04-06T02:32:02;2.40;1.00
15296;DHT22;7749;49.964;7.890;2023-04-06T02:35:03;2.30;99.90
15296;DHT22;7749;49.964;7.890;2023-04-06T02:38:01;2.30;99.90
15296;DHT22;7749;49.964;7.890;2023-04-06T02:41:08;2.30;99.90
15296;DHT22;7749;49.964;7.890;2023-04-06T02:44:09;2.20;99.90
15296;DHT22;7749;49.964;7.890;2023-04-06T02:46:58;2.20;1.00
15296;DHT22;7749;49.964;7.890;2023-04-06T02:49:56;2.10;1.00
15296;DHT22;7749;49.964;7.890;2023-04-06T02:52:27;2.10;99.90
15296;DHT22;7749;49.964;7.890;2023-04-06T02:54:54;2.10;99.90
15296;DHT22;7749;49.964;7.890;2023-04-06T02:57:25;2.20;1.00
15296;DHT22;7749;49.964;7.890;2023-04-06T02:59:53;2.00;99.90
15296;DHT22;7749;49.964;7.890;2023-04-06T03:02:23;2.00;79.20
15296;DHT22;7749;49.964;7.890;2023-04-06T03:04:54;2.00;1.00
15296;DHT22;7749;49.964;7.890;2023-04-06T03:07:22;1.90;1.00
15296;DHT22;7749;49.964;7.890;2023-04-06T03:09:51;1.90;1.00
15296;DHT22;7749;49.964;7.890;2023-04-06T03:12:19;1.90;1.00
15296;DHT22;7749;49.964;7.890;2023-04-06T03:14:47;1.90;99.90
15296;DHT22;7749;49.964;7.890;2023-04-06T03:17:14;1.90;99.90
15296;DHT22;7749;49.964;7.890;2023-04-06T03:19:42;1.90;1.00
15296;DHT22;7749;49.964;7.890;2023-04-06T03:22:10;2.00;1.00
15296;DHT22;7749;49.964;7.890;2023-04-06T03:24:38;2.00;99.90
15296;DHT22;7749;49.964;7.890;2023-04-06T03:27:09;2.10;99.90
15296;DHT22;7749;49.964;7.890;2023-04-06T03:29:36;1.90;99.90
15296;DHT22;7749;49.964;7.890;2023-04-06T03:32:04;1.90;1.00
15296;DHT22;7749;49.964;7.890;2023-04-06T03:34:34;2.00;1.00
15296;DHT22;7749;49.964;7.890;2023-04-06T03:37:02;2.00;1.00
15296;DHT22;7749;49.964;7.890;2023-04-06T03:39:37;2.00;1.00
15296;DHT22;7749;49.964;7.890;2023-04-06T03:42:05;1.90;1.00
15296;DHT22;7749;49.964;7.890;2023-04-06T03:44:32;2.00;1.00
15296;DHT22;7749;49.964;7.890;2023-04-06T03:47:00;1.90;1.00
15296;DHT22;7749;49.964;7.890;2023-04-06T03:49:28;1.90;1.00
15296;DHT22;7749;49.964;7.890;2023-04-06T03:51:56;1.90;1.00
15296;DHT22;7749;49.964;7.890;2023-04-06T03:54:24;1.90;1.00
15296;DHT22;7749;49.964;7.890;2023-04-06T03:56:52;1.80;1.00
15296;DHT22;7749;49.964;7.890;2023-04-06T03:59:19;1.70;1.00
15296;DHT22;7749;49.964;7.890;2023-04-06T04:01:47;1.80;1.00
15296;DHT22;7749;49.964;7.890;2023-04-06T04:04:15;1.70;1.00
15296;DHT22;7749;49.964;7.890;2023-04-06T04:06:43;1.90;1.00
15296;DHT22;7749;49.964;7.890;2023-04-06T04:09:10;1.80;1.00
15296;DHT22;7749;49.964;7.890;2023-04-06T04:11:38;1.80;1.00
15296;DHT22;7749;49.964;7.890;2023-04-06T04:14:07;1.70;1.00
15296;DHT22;7749;49.964;7.890;2023-04-06T04:16:35;1.70;1.00
15296;DHT22;7749;49.964;7.890;2023-04-06T04:19:02;1.70;1.00
15296;DHT22;7749;49.964;7.890;2023-04-06T04:21:31;1.60;1.00
15296;DHT22;7749;49.964;7.890;2023-04-06T04:23:59;1.60;90.70
15296;DHT22;7749;49.964;7.890;2023-04-06T04:26:26;1.60;99.90
15296;DHT22;7749;49.964;7.890;2023-04-06T04:28:54;1.60;99.90
15296;DHT22;7749;49.964;7.890;2023-04-06T04:31:22;1.60;99.90
15296;DHT22;7749;49.964;7.890;2023-04-06T04:33:53;1.60;99.90
15296;DHT22;7749;49.964;7.890;2023-04-06T04:36:21;1.60;1.00
15296;DHT22;7749;49.964;7.890;2023-04-06T04:38:48;1.60;1.00
15296;DHT22;7749;49.964;7.890;2023-04-06T04:41:16;1.60;1.00
15296;DHT22;7749;49.964;7.890;2023-04-06T04:43:44;1.50;1.00
15296;DHT22;7749;49.964;7.890;2023-04-06T04:46:12;1.60;1.00
15296;DHT22;7749;49.964;7.890;2023-04-06T04:48:40;1.50;1.00
15296;DHT22;7749;49.964;7.890;2023-04-06T04:51:08;1.50;1.00
15296;DHT22;7749;49.964;7.890;2023-04-06T04:53:35;1.50;1.00
15296;DHT22;7749;49.964;7.890;2023-04-06T04:56:03;1.50;1.00
15296;DHT22;7749;49.964;7.890;2023-04-06T04:58:31;1.50;1.00
15296;DHT22;7749;49.964;7.890;2023-04-06T05:00:59;1.60;1.00
15296;DHT22;7749;49.964;7.890;2023-04-06T05:03:27;1.50;1.00
15296;DHT22;7749;49.964;7.890;2023-04-06T05:05:55;1.50;1.00
15296;DHT22;7749;49.964;7.890;2023-04-06T05:08:23;1.40;1.00
15296;DHT22;7749;49.964;7.890;2023-04-06T05:10:50;1.50;1.00
15296;DHT22;7749;49.964;7.890;2023-04-06T05:13:18;1.50;1.00
15296;DHT22;7749;49.964;7.890;2023-04-06T05:15:46;1.50;1.00
15296;DHT22;7749;49.964;7.890;2023-04-06T05:18:14;1.60;1.00
15296;DHT22;7749;49.964;7.890;2023-04-06T05:20:42;1.60;1.00
15296;DHT22;7749;49.964;7.890;2023-04-06T05:23:10;1.60;1.00
15296;DHT22;7749;49.964;7.890;2023-04-06T05:25:38;1.60;1.00
15296;DHT22;7749;49.964;7.890;2023-04-06T05:28:06;1.70;1.00
15296;DHT22;7749;49.964;7.890;2023-04-06T05:30:36;1.70;1.00
15296;DHT22;7749;49.964;7.890;2023-04-06T05:33:04;1.70;1.00
15296;DHT22;7749;49.964;7.890;2023-04-06T05:35:34;1.80;1.00
15296;DHT22;7749;49.964;7.890;2023-04-06T05:38:02;1.80;1.00
15296;DHT22;7749;49.964;7.890;2023-04-06T05:40:30;1.90;1.00
15296;DHT22;7749;49.964;7.890;2023-04-06T05:42:58;1.90;1.00
15296;DHT22;7749;49.964;7.890;2023-04-06T05:45:30;1.90;1.00
15296;DHT22;7749;49.964;7.890;2023-04-06T05:47:58;2.00;1.00
15296;DHT22;7749;49.964;7.890;2023-04-06T05:50:26;2.00;1.00
15296;DHT22;7749;49.964;7.890;2023-04-06T05:52:54;2.00;1.00
15296;DHT22;7749;49.964;7.890;2023-04-06T05:55:22;2.10;1.00
15296;DHT22;7749;49.964;7.890;2023-04-06T05:57:49;2.30;1.00
15296;DHT22;7749;49.964;7.890;2023-04-06T06:00:17;2.60;1.00
15296;DHT22;7749;49.964;7.890;2023-04-06T06:02:45;2.80;99.90
15296;DHT22;7749;49.964;7.890;2023-04-06T06:05:13;2.80;1.00
15296;DHT22;7749;49.964;7.890;2023-04-06T06:07:41;2.70;99.90
15296;DHT22;7749;49.964;7.890;2023-04-06T06:10:09;2.70;1.00
15296;DHT22;7749;49.964;7.890;2023-04-06T06:12:37;2.70;1.00
15296;DHT22;7749;49.964;7.890;2023-04-06T06:15:05;2.70;1.00
15296;DHT22;7749;49.964;7.890;2023-04-06T06:17:33;2.70;7.30
15296;DHT22;7749;49.964;7.890;2023-04-06T06:20:08;2.70;99.90
15296;DHT22;7749;49.964;7.890;2023-04-06T06:22:36;2.80;33.00
15296;DHT22;7749;49.964;7.890;2023-04-06T06:25:07;2.90;1.00
15296;DHT22;7749;49.964;7.890;2023-04-06T06:27:34;3.00;1.00
15296;DHT22;7749;49.964;7.890;2023-04-06T06:30:03;3.00;1.00
15296;DHT22;7749;49.964;7.890;2023-04-06T06:32:32;3.10;99.90
15296;DHT22;7749;49.964;7.890;2023-04-06T06:34:59;3.10;53.50
15296;DHT22;7749;49.964;7.890;2023-04-06T06:37:27;3.20;1.00
15296;DHT22;7749;49.964;7.890;2023-04-06T06:39:57;3.30;1.00
15296;DHT22;7749;49.964;7.890;2023-04-06T06:42:28;3.50;1.00
15296;DHT22;7749;49.964;7.890;2023-04-06T06:44:55;3.40;99.90
15296;DHT22;7749;49.964;7.890;2023-04-06T06:47:23;3.40;99.90
15296;DHT22;7749;49.964;7.890;2023-04-06T06:49:51;3.50;1.00
15296;DHT22;7749;49.964;7.890;2023-04-06T06:52:19;3.50;1.00
15296;DHT22;7749;49.964;7.890;2023-04-06T06:54:46;3.60;1.00
15296;DHT22;7749;49.964;7.890;2023-04-06T06:57:14;3.80;1.00
15296;DHT22;7749;49.964;7.890;2023-04-06T06:59:55;3.90;99.90
15296;DHT22;7749;49.964;7.890;2023-04-06T07:02:23;3.90;1.00
15296;DHT22;7749;49.964;7.890;2023-04-06T07:04:51;4.00;99.90
15296;DHT22;7749;49.964;7.890;2023-04-06T07:07:22;4.00;1.00
15296;DHT22;7749;49.964;7.890;2023-04-06T07:09:50;4.00;1.00
15296;DHT22;7749;49.964;7.890;2023-04-06T07:12:18;4.20;99.90
15296;DHT22;7749;49.964;7.890;2023-04-06T07:14:45;4.30;1.00
15296;DHT22;7749;49.964;7.890;2023-04-06T07:17:13;4.40;1.00
15296;DHT22;7749;49.964;7.890;2023-04-06T07:19:41;4.40;1.00
15296;DHT22;7749;49.964;7.890;2023-04-06T07:22:11;4.60;99.90
15296;DHT22;7749;49.964;7.890;2023-04-06T07:24:39;4.80;22.50
15296;DHT22;7749;49.964;7.890;2023-04-06T07:27:07;4.80;1.00
15296;DHT22;7749;49.964;7.890;2023-04-06T07:29:34;4.90;1.00
15296;DHT22;7749;49.964;7.890;2023-04-06T07:32:02;5.00;99.90
15296;DHT22;7749;49.964;7.890;2023-04-06T07:34:30;5.00;99.90
15296;DHT22;7749;49.964;7.890;2023-04-06T07:36:58;5.10;99.90
15296;DHT22;7749;49.964;7.890;2023-04-06T07:39:30;5.20;1.00
15296;DHT22;7749;49.964;7.890;2023-04-06T07:41:58;5.20;1.00
15296;DHT22;7749;49.964;7.890;2023-04-06T07:44:26;5.40;1.00
15296;DHT22;7749;49.964;7.890;2023-04-06T07:46:57;5.50;99.90
15296;DHT22;7749;49.964;7.890;2023-04-06T07:49:25;5.50;1.00
15296;DHT22;7749;49.964;7.890;2023-04-06T07:51:53;5.60;1.00
15296;DHT22;7749;49.964;7.890;2023-04-06T07:54:21;5.60;99.90
15296;DHT22;7749;49.964;7.890;2023-04-06T07:56:54;5.60;99.90
15296;DHT22;7749;49.964;7.890;2023-04-06T07:59:22;5.70;99.90
15296;DHT22;7749;49.964;7.890;2023-04-06T08:01:50;5.90;99.90
15296;DHT22;7749;49.964;7.890;2023-04-06T08:04:17;6.00;95.60
15296;DHT22;7749;49.964;7.890;2023-04-06T08:06:45;6.30;1.00
15296;DHT22;7749;49.964;7.890;2023-04-06T08:09:13;6.30;1.00
15296;DHT22;7749;49.964;7.890;2023-04-06T08:11:41;6.50;1.00
15296;DHT22;7749;49.964;7.890;2023-04-06T08:14:09;6.50;1.00
15296;DHT22;7749;49.964;7.890;2023-04-06T08:16:38;6.50;1.00
15296;DHT22;7749;49.964;7.890;2023-04-06T08:19:08;6.60;1.00
15296;DHT22;7749;49.964;7.890;2023-04-06T08:21:36;6.80;1.00
15296;DHT22;7749;49.964;7.890;2023-04-06T08:24:05;6.90;1.00
15296;DHT22;7749;49.964;7.890;2023-04-06T08:26:35;7.00;99.90
15296;DHT22;7749;49.964;7.890;2023-04-06T08:29:03;7.00;99.90
15296;DHT22;7749;49.964;7.890;2023-04-06T08:31:31;7.20;99.90
15296;DHT22;7749;49.964;7.890;2023-04-06T08:33:59;7.30;99.90
15296;DHT22;7749;49.964;7.890;2023-04-06T08:36:29;7.40;99.90
15296;DHT22;7749;49.964;7.890;2023-04-06T08:38:59;7.50;99.90
15296;DHT22;7749;49.964;7.890;2023-04-06T08:41:29;7.60;99.90
15296;DHT22;7749;49.964;7.890;2023-04-06T08:43:58;7.70;99.90
15296;DHT22;7749;49.964;7.890;2023-04-06T08:46:26;7.80;75.50
15296;DHT22;7749;49.964;7.890;2023-04-06T08:48:59;7.90;81.40
15296;DHT22;7749;49.964;7.890;2023-04-06T08:51:28;8.20;68.30
15296;DHT22;7749;49.964;7.890;2023-04-06T08:53:59;8.40;1.00
15296;DHT22;7749;49.964;7.890;2023-04-06T08:56:28;8.50;1.00
15296;DHT22;7749;49.964;7.890;2023-04-06T08:58:59;8.60;1.00
15296;DHT22;7749;49.964;7.890;2023-04-06T09:01:28;8.70;1.00
15296;DHT22;7749;49.964;7.890;2023-04-06T09:03:58;8.90;1.00
15296;DHT22;7749;49.964;7.890;2023-04-06T09:06:27;9.00;1.00
15296;DHT22;7749;49.964;7.890;2023-04-06T09:08:55;9.00;1.00
15296;DHT22;7749;49.964;7.890;2023-04-06T09:11:22;9.10;1.00
15296;DHT22;7749;49.964;7.890;2023-04-06T09:13:51;9.40;1.00
15296;DHT22;7749;49.964;7.890;2023-04-06T09:16:20;9.60;1.00
15296;DHT22;7749;49.964;7.890;2023-04-06T09:18:48;9.80;1.00
15296;DHT22;7749;49.964;7.890;2023-04-06T09:21:17;10.10;1.00
15296;DHT22;7749;49.964;7.890;2023-04-06T09:23:58;10.30;1.00
15296;DHT22;7749;49.964;7.890;2023-04-06T09:26:27;10.40;1.00
15296;DHT22;7749;49.964;7.890;2023-04-06T09:28:56;10.50;1.00
15296;DHT22;7749;49.964;7.890;2023-04-06T09:31:29;10.60;1.00
15296;DHT22;7749;49.964;7.890;2023-04-06T09:33:57;11.00;1.00
15296;DHT22;7749;49.964;7.890;2023-04-06T09:36:31;11.20;1.00
15296;DHT22;7749;49.964;7.890;2023-04-06T09:39:04;11.70;1.00
15296;DHT22;7749;49.964;7.890;2023-04-06T09:41:34;11.90;1.00
15296;DHT22;7749;49.964;7.890;2023-04-06T09:44:09;12.20;1.00
15296;DHT22;7749;49.964;7.890;2023-04-06T09:46:40;12.40;1.00
15296;DHT22;7749;49.964;7.890;2023-04-06T09:49:28;12.40;1.00
15296;DHT22;7749;49.964;7.890;2023-04-06T09:51:59;12.50;1.00
15296;DHT22;7749;49.964;7.890;2023-04-06T09:54:30;12.70;1.00
15296;DHT22;7749;49.964;7.890;2023-04-06T09:57:13;12.90;1.00
15296;DHT22;7749;49.964;7.890;2023-04-06T10:00:01;13.30;1.00
15296;DHT22;7749;49.964;7.890;2023-04-06T10:03:01;13.50;1.00
15296;DHT22;7749;49.964;7.890;2023-04-06T10:05:47;14.20;1.00
15296;DHT22;7749;49.964;7.890;2023-04-06T10:08:19;14.10;1.00
15296;DHT22;7749;49.964;7.890;2023-04-06T10:10:48;14.10;1.00
15296;DHT22;7749;49.964;7.890;2023-04-06T10:13:18;14.30;1.00
15296;DHT22;7749;49.964;7.890;2023-04-06T10:15:47;14.20;99.90
15296;DHT22;7749;49.964;7.890;2023-04-06T10:18:15;14.40;99.90
15296;DHT22;7749;49.964;7.890;2023-04-06T10:23:26;14.80;99.90
15296;DHT22;7749;49.964;7.890;2023-04-06T10:25:58;15.10;99.90
15296;DHT22;7749;49.964;7.890;2023-04-06T10:28:31;15.00;99.90
15296;DHT22;7749;49.964;7.890;2023-04-06T10:31:01;15.00;99.90
15296;DHT22;7749;49.964;7.890;2023-04-06T10:33:30;15.40;99.90
15296;DHT22;7749;49.964;7.890;2023-04-06T10:36:21;15.40;99.90
15296;DHT22;7749;49.964;7.890;2023-04-06T10:38:55;15.50;99.90
15296;DHT22;7749;49.964;7.890;2023-04-06T10:41:23;15.50;99.90
15296;DHT22;7749;49.964;7.890;2023-04-06T10:43:57;15.40;99.90
15296;DHT22;7749;49.964;7.890;2023-04-06T10:46:32;15.50;99.90
15296;DHT22;7749;49.964;7.890;2023-04-06T10:49:12;15.70;99.90
15296;DHT22;7749;49.964;7.890;2023-04-06T10:51:43;15.40;99.90
15296;DHT22;7749;49.964;7.890;2023-04-06T10:54:11;15.40;99.90
15296;DHT22;7749;49.964;7.890;2023-04-06T10:56:40;15.70;99.90
15296;DHT22;7749;49.964;7.890;2023-04-06T10:59:07;15.70;99.90
15296;DHT22;7749;49.964;7.890;2023-04-06T11:01:35;16.00;99.90
15296;DHT22;7749;49.964;7.890;2023-04-06T11:04:03;16.10;99.90
15296;DHT22;7749;49.964;7.890;2023-04-06T11:06:31;16.10;99.90
15296;DHT22;7749;49.964;7.890;2023-04-06T11:09:00;15.70;99.90
15296;DHT22;7749;49.964;7.890;2023-04-06T11:11:27;16.40;99.90
15296;DHT22;7749;49.964;7.890;2023-04-06T11:13:59;18.00;99.90
15296;DHT22;7749;49.964;7.890;2023-04-06T11:16:31;19.80;99.90
15296;DHT22;7749;49.964;7.890;2023-04-06T11:19:04;20.40;99.90
15296;DHT22;7749;49.964;7.890;2023-04-06T11:21:45;21.00;99.90
15296;DHT22;7749;49.964;7.890;2023-04-06T11:26:54;20.60;99.90
15296;DHT22;7749;49.964;7.890;2023-04-06T11:29:26;20.30;99.90
15296;DHT22;7749;49.964;7.890;2023-04-06T11:31:59;20.80;99.90
15296;DHT22;7749;49.964;7.890;2023-04-06T11:34:29;21.60;99.90
15296;DHT22;7749;49.964;7.890;2023-04-06T11:36:59;22.80;99.90
15296;DHT22;7749;49.964;7.890;2023-04-06T11:39:30;23.50;99.90
15296;DHT22;7749;49.964;7.890;2023-04-06T11:41:59;24.70;99.90
15296;DHT22;7749;49.964;7.890;2023-04-06T11:44:39;25.20;99.90
15296;DHT22;7749;49.964;7.890;2023-04-06T11:47:09;25.80;99.90
15296;DHT22;7749;49.964;7.890;2023-04-06T11:49:39;25.50;99.90
15296;DHT22;7749;49.964;7.890;2023-04-06T11:52:18;24.80;99.90
15296;DHT22;7749;49.964;7.890;2023-04-06T11:54:48;23.60;99.90
15296;DHT22;7749;49.964;7.890;2023-04-06T11:57:16;21.60;99.90
15296;DHT22;7749;49.964;7.890;2023-04-06T11:59:45;20.10;99.90
15296;DHT22;7749;49.964;7.890;2023-04-06T12:02:13;19.30;99.90
15296;DHT22;7749;49.964;7.890;2023-04-06T12:04:40;19.80;99.90
15296;DHT22;7749;49.964;7.890;2023-04-06T12:07:08;20.20;99.90
15296;DHT22;7749;49.964;7.890;2023-04-06T12:09:36;20.60;99.90
15296;DHT22;7749;49.964;7.890;2023-04-06T12:12:04;20.40;99.90
15296;DHT22;7749;49.964;7.890;2023-04-06T12:14:32;20.20;99.90
15296;DHT22;7749;49.964;7.890;2023-04-06T12:16:59;19.50;99.90
15296;DHT22;7749;49.964;7.890;2023-04-06T12:19:27;18.80;99.90
15296;DHT22;7749;49.964;7.890;2023-04-06T12:21:57;18.60;99.90
15296;DHT22;7749;49.964;7.890;2023-04-06T12:24:25;18.50;99.90
15296;DHT22;7749;49.964;7.890;2023-04-06T12:26:53;18.80;99.90
15296;DHT22;7749;49.964;7.890;2023-04-06T12:29:36;19.20;99.90
15296;DHT22;7749;49.964;7.890;2023-04-06T12:32:04;19.40;99.90
15296;DHT22;7749;49.964;7.890;2023-04-06T12:34:32;19.30;99.90
15296;DHT22;7749;49.964;7.890;2023-04-06T12:37:00;19.30;99.90
15296;DHT22;7749;49.964;7.890;2023-04-06T12:39:28;20.00;99.90
15296;DHT22;7749;49.964;7.890;2023-04-06T12:41:55;19.80;99.90
15296;DHT22;7749;49.964;7.890;2023-04-06T12:44:24;19.50;99.90
15296;DHT22;7749;49.964;7.890;2023-04-06T12:46:53;19.60;99.90
15296;DHT22;7749;49.964;7.890;2023-04-06T12:49:21;19.60;99.90
15296;DHT22;7749;49.964;7.890;2023-04-06T12:51:50;20.00;99.90
15296;DHT22;7749;49.964;7.890;2023-04-06T12:54:18;20.00;99.90
15296;DHT22;7749;49.964;7.890;2023-04-06T12:56:45;19.70;99.90
15296;DHT22;7749;49.964;7.890;2023-04-06T12:59:16;19.20;99.90
15296;DHT22;7749;49.964;7.890;2023-04-06T13:01:44;19.00;99.90
15296;DHT22;7749;49.964;7.890;2023-04-06T13:04:12;19.20;99.90
15296;DHT22;7749;49.964;7.890;2023-04-06T13:06:39;19.70;99.90
15296;DHT22;7749;49.964;7.890;2023-04-06T13:09:07;20.00;99.90
15296;DHT22;7749;49.964;7.890;2023-04-06T13:11:35;20.20;99.90
15296;DHT22;7749;49.964;7.890;2023-04-06T13:14:03;20.50;99.90
15296;DHT22;7749;49.964;7.890;2023-04-06T13:16:31;20.60;99.90
15296;DHT22;7749;49.964;7.890;2023-04-06T13:19:02;20.10;99.90
15296;DHT22;7749;49.964;7.890;2023-04-06T13:21:30;19.90;99.90
15296;DHT22;7749;49.964;7.890;2023-04-06T13:23:58;19.60;99.90
15296;DHT22;7749;49.964;7.890;2023-04-06T13:26:25;19.20;99.90
15296;DHT22;7749;49.964;7.890;2023-04-06T13:28:53;18.70;99.90
15296;DHT22;7749;49.964;7.890;2023-04-06T13:31:23;18.30;99.90
15296;DHT22;7749;49.964;7.890;2023-04-06T13:33:51;18.00;99.90
15296;DHT22;7749;49.964;7.890;2023-04-06T13:36:18;17.90;99.90
15296;DHT22;7749;49.964;7.890;2023-04-06T13:38:46;17.60;99.90
15296;DHT22;7749;49.964;7.890;2023-04-06T13:41:21;17.50;99.90
15296;DHT22;7749;49.964;7.890;2023-04-06T13:43:49;17.30;99.90
15296;DHT22;7749;49.964;7.890;2023-04-06T13:46:17;17.10;99.90
15296;DHT22;7749;49.964;7.890;2023-04-06T13:48:45;17.30;99.90
15296;DHT22;7749;49.964;7.890;2023-04-06T13:51:15;17.20;99.90
15296;DHT22;7749;49.964;7.890;2023-04-06T13:53:43;17.00;99.90
15296;DHT22;7749;49.964;7.890;2023-04-06T13:56:11;16.90;99.90
15296;DHT22;7749;49.964;7.890;2023-04-06T13:58:38;17.10;99.90
15296;DHT22;7749;49.964;7.890;2023-04-06T14:01:07;17.10;99.90
15296;DHT22;7749;49.964;7.890;2023-04-06T14:03:38;17.10;99.90
15296;DHT22;7749;49.964;7.890;2023-04-06T14:06:13;17.00;99.90
15296;DHT22;7749;49.964;7.890;2023-04-06T14:08:44;16.70;99.90
15296;DHT22;7749;49.964;7.890;2023-04-06T14:11:12;16.50;99.90
15296;DHT22;7749;49.964;7.890;2023-04-06T14:13:41;16.10;99.90
15296;DHT22;7749;49.964;7.890;2023-04-06T14:16:09;16.20;99.90
15296;DHT22;7749;49.964;7.890;2023-04-06T14:18:37;16.40;99.90
15296;DHT22;7749;49.964;7.890;2023-04-06T14:21:05;16.30;99.90
15296;DHT22;7749;49.964;7.890;2023-04-06T14:23:33;16.30;99.90
15296;DHT22;7749;49.964;7.890;2023-04-06T14:26:07;16.20;99.90
15296;DHT22;7749;49.964;7.890;2023-04-06T14:28:36;16.00;99.90
15296;DHT22;7749;49.964;7.890;2023-04-06T14:31:10;16.00;99.90
15296;DHT22;7749;49.964;7.890;2023-04-06T14:33:39;16.10;99.90
15296;DHT22;7749;49.964;7.890;2023-04-06T14:36:08;16.10;99.90
15296;DHT22;7749;49.964;7.890;2023-04-06T14:38:36;15.80;99.90
15296;DHT22;7749;49.964;7.890;2023-04-06T14:41:18;15.80;99.90
15296;DHT22;7749;49.964;7.890;2023-04-06T14:43:46;15.30;99.90
15296;DHT22;7749;49.964;7.890;2023-04-06T14:46:16;15.10;99.90
15296;DHT22;7749;49.964;7.890;2023-04-06T14:48:44;15.10;99.90
15296;DHT22;7749;49.964;7.890;2023-04-06T14:51:12;15.10;99.90
15296;DHT22;7749;49.964;7.890;2023-04-06T14:53:40;15.00;99.90
15296;DHT22;7749;49.964;7.890;2023-04-06T14:56:08;14.90;99.90
15296;DHT22;7749;49.964;7.890;2023-04-06T14:58:35;14.10;99.90
15296;DHT22;7749;49.964;7.890;2023-04-06T15:01:05;14.30;99.90
15296;DHT22;7749;49.964;7.890;2023-04-06T15:03:33;14.40;99.90
15296;DHT22;7749;49.964;7.890;2023-04-06T15:06:01;14.60;99.90
15296;DHT22;7749;49.964;7.890;2023-04-06T15:08:29;14.60;99.90
15296;DHT22;7749;49.964;7.890;2023-04-06T15:10:59;14.60;99.90
15296;DHT22;7749;49.964;7.890;2023-04-06T15:13:27;14.30;99.90
15296;DHT22;7749;49.964;7.890;2023-04-06T15:15:54;14.30;99.90
15296;DHT22;7749;49.964;7.890;2023-04-06T15:18:22;14.10;99.90
15296;DHT22;7749;49.964;7.890;2023-04-06T15:20:50;14.20;99.90
15296;DHT22;7749;49.964;7.890;2023-04-06T15:23:18;14.20;99.90
15296;DHT22;7749;49.964;7.890;2023-04-06T15:25:46;14.30;99.90
15296;DHT22;7749;49.964;7.890;2023-04-06T15:28:14;14.30;99.90
15296;DHT22;7749;49.964;7.890;2023-04-06T15:30:42;14.30;99.90
15296;DHT22;7749;49.964;7.890;2023-04-06T15:33:09;14.40;99.90
15296;DHT22;7749;49.964;7.890;2023-04-06T15:35:37;14.20;99.90
15296;DHT22;7749;49.964;7.890;2023-04-06T15:38:10;14.00;99.90
15296;DHT22;7749;49.964;7.890;2023-04-06T15:40:45;13.80;99.90
15296;DHT22;7749;49.964;7.890;2023-04-06T15:43:13;13.70;99.90
15296;DHT22;7749;49.964;7.890;2023-04-06T15:45:41;13.70;99.90
15296;DHT22;7749;49.964;7.890;2023-04-06T15:48:09;13.40;99.90
15296;DHT22;7749;49.964;7.890;2023-04-06T15:50:37;13.30;99.90
15296;DHT22;7749;49.964;7.890;2023-04-06T15:53:05;13.50;99.90
15296;DHT22;7749;49.964;7.890;2023-04-06T15:55:33;13.80;99.90
15296;DHT22;7749;49.964;7.890;2023-04-06T15:58:01;13.90;99.90
15296;DHT22;7749;49.964;7.890;2023-04-06T16:00:29;13.90;99.90
15296;DHT22;7749;49.964;7.890;2023-04-06T16:02:56;13.80;99.90
15296;DHT22;7749;49.964;7.890;2023-04-06T16:05:24;13.80;99.90
15296;DHT22;7749;49.964;7.890;2023-04-06T16:07:56;13.60;99.90
15296;DHT22;7749;49.964;7.890;2023-04-06T16:10:26;13.40;99.90
15296;DHT22;7749;49.964;7.890;2023-04-06T16:12:54;13.40;99.90
15296;DHT22;7749;49.964;7.890;2023-04-06T16:15:21;13.30;99.90
15296;DHT22;7749;49.964;7.890;2023-04-06T16:17:49;13.30;99.90
15296;DHT22;7749;49.964;7.890;2023-04-06T16:20:18;13.30;99.90
15296;DHT22;7749;49.964;7.890;2023-04-06T16:22:46;13.40;99.90
15296;DHT22;7749;49.964;7.890;2023-04-06T16:25:16;13.30;99.90
15296;DHT22;7749;49.964;7.890;2023-04-06T16:27:43;13.30;99.90
15296;DHT22;7749;49.964;7.890;2023-04-06T16:30:11;13.20;99.90
15296;DHT22;7749;49.964;7.890;2023-04-06T16:32:39;13.10;99.90
15296;DHT22;7749;49.964;7.890;2023-04-06T16:35:08;13.10;99.90
15296;DHT22;7749;49.964;7.890;2023-04-06T16:37:35;13.10;99.90
15296;DHT22;7749;49.964;7.890;2023-04-06T16:40:03;12.80;99.90
15296;DHT22;7749;49.964;7.890;2023-04-06T16:42:31;12.70;99.90
15296;DHT22;7749;49.964;7.890;2023-04-06T16:44:59;12.70;99.90
15296;DHT22;7749;49.964;7.890;2023-04-06T16:47:27;12.60;99.90
15296;DHT22;7749;49.964;7.890;2023-04-06T16:49:54;12.60;99.90